Terminal Aerodrome Forecast
Issued by NWS

Home | Current Version | Previous Version | Text Only | Print | Product List | Glossary On
Versions: 1 2 3 4 5 6 7 8 9 10 11 12 13
104
FTUS42 KTBW 030520
TAFLAL
TAF
KLAL 030520Z 0306/0406 VRB03KT P6SM BKN040
      TEMPO 0306/0309 BKN020
     FM030900 VRB03KT 5SM BR BKN020
     FM031500 22008KT P6SM BKN035 OVC200
     FM031800 25010KT P6SM VCTS BKN040CB
     FM040000 26007KT P6SM SCT050 BKN150
      AMD NOT SKED TIL 031200=

USA.gov is the U.S. government's official web portal to all federal, state and local government web resources and services.